createdAt,value
2018-09-08T00:01:02.040Z,15.10
2018-09-08T00:03:33.484Z,15.10
2018-09-08T00:06:02.842Z,15.00
2018-09-08T00:08:32.385Z,14.90
2018-09-08T00:11:06.324Z,14.90
2018-09-08T00:13:36.867Z,14.80
2018-09-08T00:24:53.682Z,14.60
2018-09-08T00:33:03.694Z,14.50
2018-09-08T00:35:53.848Z,14.50
2018-09-08T00:38:23.961Z,14.50
2018-09-08T00:40:53.456Z,14.50
2018-09-08T00:43:23.065Z,14.50
2018-09-08T00:45:53.700Z,14.50
2018-09-08T00:48:24.508Z,14.60
2018-09-08T00:50:53.912Z,14.60
2018-09-08T00:53:24.489Z,14.50
2018-09-08T00:55:53.421Z,14.50
2018-09-08T00:58:23.585Z,14.50
2018-09-08T01:00:52.965Z,14.60
2018-09-08T01:03:23.041Z,14.60
2018-09-08T01:05:56.006Z,14.70
2018-09-08T01:08:36.754Z,14.60
2018-09-08T01:11:08.108Z,14.60
2018-09-08T01:13:40.364Z,14.60
2018-09-08T01:16:09.576Z,14.60
2018-09-08T01:18:39.856Z,14.50
2018-09-08T01:21:09.678Z,14.50
2018-09-08T01:23:47.345Z,14.50
2018-09-08T01:26:18.784Z,14.40
2018-09-08T01:28:49.585Z,14.40
2018-09-08T01:31:19.483Z,14.40
2018-09-08T01:33:50.061Z,14.40
2018-09-08T01:36:22.106Z,14.50
2018-09-08T01:38:51.640Z,14.50
2018-09-08T01:41:20.641Z,14.50
2018-09-08T01:43:50.608Z,14.40
2018-09-08T01:46:20.217Z,14.40
2018-09-08T01:48:51.002Z,14.40
2018-09-08T01:51:21.024Z,14.40
2018-09-08T01:53:50.823Z,14.40
2018-09-08T01:56:20.116Z,14.50
2018-09-08T01:58:49.968Z,14.50
2018-09-08T02:01:21.577Z,14.40
2018-09-08T02:03:53.309Z,14.40
2018-09-08T02:06:23.555Z,14.40
2018-09-08T02:08:53.800Z,14.30
2018-09-08T02:11:23.526Z,14.30
2018-09-08T02:13:56.921Z,14.30
2018-09-08T02:16:26.193Z,14.20
2018-09-08T02:19:03.112Z,14.20
2018-09-08T02:21:32.406Z,14.20
2018-09-08T02:24:02.812Z,14.10
2018-09-08T02:26:34.052Z,14.10
2018-09-08T02:29:05.047Z,14.10
2018-09-08T02:31:36.596Z,14.10
2018-09-08T02:34:11.117Z,14.00
2018-09-08T02:36:40.072Z,14.00
2018-09-08T02:39:36.917Z,14.00
2018-09-08T02:42:08.276Z,14.00
2018-09-08T02:44:39.880Z,13.90
2018-09-08T02:47:13.735Z,13.90
2018-09-08T02:49:58.679Z,13.90
2018-09-08T02:52:27.561Z,13.90
2018-09-08T02:54:56.763Z,13.80
2018-09-08T02:57:26.241Z,13.90
2018-09-08T02:59:54.896Z,13.90
2018-09-08T03:02:23.418Z,13.80
2018-09-08T03:04:52.209Z,13.80
2018-09-08T03:07:20.913Z,13.80
2018-09-08T03:09:50.197Z,13.80
2018-09-08T03:12:19.233Z,13.80
2018-09-08T03:14:48.097Z,13.90
2018-09-08T03:17:18.114Z,13.90
2018-09-08T03:19:48.405Z,13.90
2018-09-08T03:22:18.209Z,13.90
2018-09-08T03:24:54.996Z,13.80
2018-09-08T03:27:23.461Z,13.80
2018-09-08T03:29:56.319Z,13.80
2018-09-08T03:32:24.968Z,13.80
2018-09-08T03:34:58.149Z,13.70
2018-09-08T03:37:34.611Z,13.70
2018-09-08T03:40:05.206Z,13.70
2018-09-08T03:42:34.276Z,13.70
2018-09-08T03:45:04.272Z,13.70
2018-09-08T03:47:32.658Z,13.60
2018-09-08T03:50:07.127Z,13.60
2018-09-08T03:52:37.096Z,13.60
2018-09-08T03:55:06.684Z,13.60
2018-09-08T03:57:35.366Z,13.60
2018-09-08T04:00:04.617Z,13.60
2018-09-08T04:02:32.380Z,13.60
2018-09-08T04:05:06.864Z,13.60
2018-09-08T04:07:42.133Z,13.60
2018-09-08T04:10:17.856Z,13.60
2018-09-08T04:12:48.944Z,13.60
2018-09-08T04:15:23.135Z,13.60
2018-09-08T04:17:53.424Z,13.50
2018-09-08T04:20:28.009Z,13.50
2018-09-08T04:22:59.308Z,13.60
2018-09-08T04:25:29.459Z,13.60
2018-09-08T04:27:59.745Z,13.60
2018-09-08T04:30:31.956Z,13.60
2018-09-08T04:33:01.169Z,13.60
2018-09-08T04:35:34.289Z,13.50
2018-09-08T04:38:03.920Z,13.60
2018-09-08T04:40:37.357Z,13.60
2018-09-08T04:43:22.044Z,13.60
2018-09-08T04:45:51.860Z,13.70
2018-09-08T04:48:23.877Z,13.70
2018-09-08T04:51:07.542Z,13.80
2018-09-08T04:53:37.140Z,13.80
2018-09-08T04:56:10.606Z,13.90
2018-09-08T04:58:54.908Z,14.00
2018-09-08T05:01:25.183Z,14.10
2018-09-08T05:03:55.060Z,14.20
2018-09-08T05:06:26.345Z,14.40
2018-09-08T05:08:55.355Z,14.50
2018-09-08T05:14:05.298Z,14.60
2018-09-08T05:16:35.892Z,14.70
2018-09-08T05:19:07.101Z,14.80
2018-09-08T05:21:43.019Z,14.80
2018-09-08T05:24:14.017Z,14.90
2018-09-08T05:26:45.703Z,14.90
2018-09-08T05:29:16.846Z,15.00
2018-09-08T05:31:52.396Z,15.00
2018-09-08T05:34:23.735Z,15.10
2018-09-08T05:36:58.705Z,15.10
2018-09-08T05:42:10.401Z,15.20
2018-09-08T05:44:39.954Z,15.10
2018-09-08T05:47:15.388Z,15.10
2018-09-08T05:49:45.028Z,15.10
2018-09-08T05:52:15.064Z,15.10
2018-09-08T05:54:45.671Z,15.10
2018-09-08T05:57:16.387Z,15.20
2018-09-08T05:59:50.810Z,15.20
2018-09-08T06:02:21.981Z,15.20
2018-09-08T06:04:51.069Z,15.20
2018-09-08T06:07:20.745Z,15.30
2018-09-08T06:09:50.672Z,15.40
2018-09-08T06:12:23.284Z,15.40
2018-09-08T06:14:55.772Z,15.50
2018-09-08T06:17:26.655Z,15.40
2018-09-08T06:24:07.149Z,15.00
2018-09-08T06:26:43.156Z,14.40
2018-09-08T06:32:43.233Z,13.70
2018-09-08T06:35:13.312Z,13.50
2018-09-08T06:37:43.184Z,13.40
2018-09-08T06:40:13.475Z,13.50
2018-09-08T06:42:46.199Z,13.50
2018-09-08T06:45:22.000Z,13.60
2018-09-08T06:47:52.390Z,13.70
2018-09-08T06:50:21.673Z,13.70
2018-09-08T06:55:29.922Z,13.70
2018-09-08T06:58:01.466Z,13.70
2018-09-08T07:00:33.229Z,13.70
2018-09-08T07:03:08.879Z,13.60
2018-09-08T07:05:41.366Z,13.70
2018-09-08T07:08:17.646Z,13.70
2018-09-08T07:10:52.065Z,13.80
2018-09-08T07:13:30.014Z,13.80
2018-09-08T07:16:01.548Z,13.80
2018-09-08T07:18:37.186Z,13.90
2018-09-08T07:21:07.301Z,13.90
2018-09-08T07:23:37.463Z,14.00
2018-09-08T07:26:07.671Z,14.10
2018-09-08T07:28:55.877Z,14.20
2018-09-08T07:31:28.196Z,14.30
2018-09-08T07:36:44.825Z,14.50
2018-09-08T07:39:25.550Z,14.60
2018-09-08T07:44:50.765Z,14.80
2018-09-08T07:47:31.649Z,14.90
2018-09-08T07:50:05.946Z,15.10
2018-09-08T07:52:48.145Z,15.40
2018-09-08T07:55:31.352Z,15.50
2018-09-08T07:58:10.907Z,15.60
2018-09-08T08:00:46.886Z,15.60
2018-09-08T08:05:59.498Z,15.40
2018-09-08T09:01:29.451Z,16.10
2018-09-08T09:04:40.055Z,16.70
2018-09-08T09:16:56.491Z,16.80
2018-09-08T09:19:52.834Z,16.90
2018-09-08T09:44:15.663Z,17.80
2018-09-08T10:06:33.741Z,18.20
2018-09-08T10:53:49.381Z,18.90
2018-09-08T10:56:42.509Z,19.00
2018-09-08T10:59:16.475Z,19.10
2018-09-08T11:02:03.687Z,19.30
2018-09-08T11:04:42.775Z,19.40
2018-09-08T11:07:17.373Z,19.60
2018-09-08T11:10:15.089Z,19.70
2018-09-08T11:15:28.198Z,20.10
2018-09-08T11:18:03.285Z,20.10
2018-09-08T11:20:44.613Z,20.10
2018-09-08T11:23:30.326Z,20.00
2018-09-08T11:26:06.325Z,19.90
2018-09-08T11:29:07.225Z,19.80
2018-09-08T11:31:38.118Z,19.60
2018-09-08T11:34:15.584Z,19.50
2018-09-08T11:36:52.715Z,19.60
2018-09-08T11:39:34.399Z,19.60
2018-09-08T11:42:13.635Z,19.60
2018-09-08T11:44:51.239Z,19.70
2018-09-08T11:47:38.506Z,19.70
2018-09-08T12:04:47.901Z,20.10
2018-09-08T12:07:19.290Z,20.10
2018-09-08T12:10:08.998Z,20.00
2018-09-08T12:12:47.110Z,19.80
2018-09-08T12:15:22.986Z,19.60
2018-09-08T12:18:08.667Z,19.50
2018-09-08T12:20:44.170Z,19.40
2018-09-08T12:23:28.955Z,19.40
2018-09-08T12:26:00.428Z,19.40
2018-09-08T12:28:45.561Z,19.50
2018-09-08T12:42:57.040Z,20.00
2018-09-08T12:52:03.103Z,20.10
2018-09-08T13:26:24.053Z,20.00
2018-09-08T13:28:59.348Z,20.20
2018-09-08T13:31:28.468Z,20.20
2018-09-08T13:34:01.630Z,20.20
2018-09-08T13:36:30.548Z,20.20
2018-09-08T13:39:01.029Z,20.20
2018-09-08T13:41:31.133Z,20.20
2018-09-08T13:44:01.430Z,20.20
2018-09-08T13:46:30.567Z,20.20
2018-09-08T13:48:59.615Z,20.30
2018-09-08T13:51:29.889Z,20.30
2018-09-08T13:53:59.951Z,20.30
2018-09-08T14:08:54.596Z,20.50
2018-09-08T14:11:38.644Z,20.70
2018-09-08T14:14:21.737Z,20.70
2018-09-08T14:16:56.415Z,20.60
2018-09-08T14:22:40.676Z,20.50
2018-09-08T14:25:23.046Z,20.30
2018-09-08T14:36:35.846Z,20.00
2018-09-08T14:47:34.662Z,19.80
2018-09-08T14:50:18.685Z,19.90
2018-09-08T14:53:12.023Z,19.90
2018-09-08T15:01:28.132Z,19.90
2018-09-08T15:04:08.139Z,20.00
2018-09-08T15:09:27.553Z,19.90
2018-09-08T15:12:12.965Z,19.80
2018-09-08T15:14:55.933Z,19.80
2018-09-08T15:23:17.253Z,19.60
2018-09-08T15:25:52.668Z,19.60
2018-09-08T15:28:28.507Z,19.50
2018-09-08T15:31:06.167Z,19.50
2018-09-08T15:33:38.597Z,19.40
2018-09-08T15:36:08.971Z,19.40
2018-09-08T15:38:43.478Z,19.30
2018-09-08T15:41:16.259Z,19.40
2018-09-08T15:43:58.595Z,19.60
2018-09-08T15:46:29.359Z,19.70
2018-09-08T15:48:58.493Z,19.80
2018-09-08T15:51:29.472Z,19.90
2018-09-08T15:53:58.752Z,19.90
2018-09-08T15:56:28.217Z,19.80
2018-09-08T15:59:10.770Z,19.80
2018-09-08T16:01:41.157Z,19.70
2018-09-08T16:04:11.747Z,19.60
2018-09-08T16:06:42.805Z,19.50
2018-09-08T16:09:47.752Z,19.50
2018-09-08T16:15:02.644Z,19.40
2018-09-08T16:20:20.216Z,19.30
2018-09-08T16:22:57.008Z,19.20
2018-09-08T16:25:33.837Z,19.10
2018-09-08T16:28:02.912Z,18.90
2018-09-08T16:30:33.513Z,18.80
2018-09-08T16:33:03.603Z,18.60
2018-09-08T16:35:40.879Z,18.60
2018-09-08T16:38:11.528Z,18.50
2018-09-08T16:43:21.427Z,18.40
2018-09-08T16:45:52.997Z,18.40
2018-09-08T16:51:28.488Z,18.40
2018-09-08T16:54:11.009Z,18.40
2018-09-08T16:56:50.883Z,18.30
2018-09-08T17:05:42.535Z,18.40
2018-09-08T17:08:28.717Z,18.30
2018-09-08T17:11:11.061Z,18.30
2018-09-08T17:14:01.545Z,18.30
2018-09-08T17:16:38.051Z,18.30
2018-09-08T17:19:17.942Z,18.20
2018-09-08T17:22:00.367Z,18.30
2018-09-08T17:27:18.296Z,18.20
2018-09-08T17:29:50.071Z,18.20
2018-09-08T17:32:21.872Z,18.10
2018-09-08T17:34:57.768Z,18.10
2018-09-08T17:37:29.052Z,18.10
2018-09-08T17:40:02.733Z,18.10
2018-09-08T17:42:40.334Z,18.10
2018-09-08T17:45:10.646Z,18.10
2018-09-08T17:47:44.364Z,18.10
2018-09-08T17:53:22.841Z,18.00
2018-09-08T17:56:01.858Z,18.00
2018-09-08T17:58:48.142Z,18.00
2018-09-08T18:04:10.851Z,17.90
2018-09-08T18:21:01.784Z,17.90
2018-09-08T18:23:39.229Z,17.80
2018-09-08T18:26:11.067Z,17.70
2018-09-08T18:28:45.902Z,17.60
2018-09-08T18:31:27.234Z,17.50
2018-09-08T18:33:57.568Z,17.50
2018-09-08T18:36:43.867Z,17.40
2018-09-08T18:39:22.008Z,17.40
2018-09-08T18:41:54.657Z,17.40
2018-09-08T18:44:27.113Z,17.50
2018-09-08T18:47:04.218Z,17.50
2018-09-08T18:49:41.299Z,17.60
2018-09-08T18:52:14.457Z,17.60
2018-09-08T18:57:33.400Z,17.60
2018-09-08T19:02:52.924Z,17.60
2018-09-08T19:05:24.641Z,17.50
2018-09-08T19:07:59.074Z,17.40
2018-09-08T19:10:36.871Z,17.30
2018-09-08T19:13:13.704Z,17.30
2018-09-08T19:15:51.199Z,17.30
2018-09-08T19:18:27.131Z,17.30
2018-09-08T19:29:38.619Z,17.40
2018-09-08T19:38:02.719Z,17.30
2018-09-08T19:46:22.632Z,17.30
2018-09-08T19:49:08.785Z,17.30
2018-09-08T19:51:47.901Z,17.30
2018-09-08T19:54:31.691Z,17.30
2018-09-08T19:57:16.271Z,17.30
2018-09-08T20:05:30.422Z,17.30
2018-09-08T20:08:14.624Z,17.30
2018-09-08T20:10:48.536Z,17.40
2018-09-08T20:13:30.557Z,17.40
2018-09-08T20:19:02.545Z,17.50
2018-09-08T20:21:40.141Z,17.50
2018-09-08T20:27:06.482Z,17.60
2018-09-08T20:33:06.642Z,17.60
2018-09-08T20:38:33.479Z,17.70
2018-09-08T20:41:04.697Z,17.70
2018-09-08T20:43:41.141Z,17.70
2018-09-08T20:46:14.768Z,17.70
2018-09-08T20:48:45.859Z,17.70
2018-09-08T20:51:20.384Z,17.70
2018-09-08T20:53:53.715Z,17.70
2018-09-08T20:56:24.264Z,17.70
2018-09-08T20:58:55.354Z,17.70
2018-09-08T21:01:27.240Z,17.70
2018-09-08T21:03:59.389Z,17.70
2018-09-08T21:06:30.172Z,17.80
2018-09-08T21:09:01.991Z,17.80
2018-09-08T21:11:32.183Z,17.80
2018-09-08T21:14:12.629Z,17.70
2018-09-08T21:17:05.191Z,17.70
2018-09-08T21:20:08.668Z,17.60
2018-09-08T21:22:42.402Z,17.60
2018-09-08T21:31:35.326Z,17.50
2018-09-08T21:37:31.328Z,17.40
2018-09-08T21:40:35.828Z,17.40
2018-09-08T21:43:11.042Z,17.30
2018-09-08T21:45:50.182Z,17.30
2018-09-08T21:48:26.669Z,17.20
2018-09-08T21:51:01.821Z,17.20
2018-09-08T21:57:07.468Z,17.10
2018-09-08T21:59:45.313Z,17.00
2018-09-08T22:02:17.339Z,17.00
2018-09-08T22:04:54.887Z,17.00
2018-09-08T22:07:27.450Z,17.00
2018-09-08T22:10:00.394Z,17.00
2018-09-08T22:12:34.073Z,16.90
2018-09-08T22:15:07.417Z,16.90
2018-09-08T22:17:39.780Z,16.90
2018-09-08T22:20:12.116Z,16.80
2018-09-08T22:22:43.642Z,16.80
2018-09-08T22:25:16.645Z,16.80
2018-09-08T22:27:52.883Z,16.70
2018-09-08T22:33:04.887Z,16.60
2018-09-08T22:35:36.933Z,16.60
2018-09-08T22:38:09.938Z,16.50
2018-09-08T22:40:42.427Z,16.50
2018-09-08T22:43:16.490Z,16.50
2018-09-08T22:45:55.749Z,16.50
2018-09-08T22:48:26.899Z,16.50
2018-09-08T22:50:57.552Z,16.50
2018-09-08T22:53:29.007Z,16.50
2018-09-08T22:56:03.935Z,16.40
2018-09-08T22:58:44.650Z,16.40
2018-09-08T23:01:16.278Z,16.40
2018-09-08T23:03:49.479Z,16.30
2018-09-08T23:06:23.403Z,16.30
2018-09-08T23:08:56.047Z,16.30
2018-09-08T23:14:23.919Z,16.30
2018-09-08T23:16:56.338Z,16.30
2018-09-08T23:19:29.549Z,16.30
2018-09-08T23:24:48.489Z,16.20
2018-09-08T23:27:25.125Z,16.20
2018-09-08T23:30:05.995Z,16.10
2018-09-08T23:32:44.811Z,16.00
2018-09-08T23:35:23.918Z,16.00
2018-09-08T23:37:57.264Z,15.90
2018-09-08T23:40:36.214Z,15.90
2018-09-08T23:43:31.017Z,15.80
2018-09-08T23:46:02.707Z,15.80
2018-09-08T23:49:00.245Z,15.70
2018-09-08T23:54:30.335Z,15.60
